createdAt,value
2017-06-02T00:02:12.037Z,101146.26
2017-06-02T00:04:38.386Z,101142.02
2017-06-02T00:07:04.716Z,101138.98
2017-06-02T00:09:31.076Z,101140.21
2017-06-02T00:11:57.398Z,101136.86
2017-06-02T00:14:23.757Z,101132.24
2017-06-02T00:16:50.101Z,101127.20
2017-06-02T00:19:16.510Z,101120.69
2017-06-02T00:21:42.883Z,101129.34
2017-06-02T00:24:09.206Z,101126.34
2017-06-02T00:26:35.595Z,101116.37
2017-06-02T00:29:01.954Z,101111.74
2017-06-02T00:31:28.305Z,101107.30
2017-06-02T00:33:54.684Z,101106.57
2017-06-02T00:36:21.018Z,101103.54
2017-06-02T00:38:47.381Z,101100.91
2017-06-02T00:41:13.720Z,101102.70
2017-06-02T00:43:40.047Z,101096.98
2017-06-02T00:46:06.403Z,101098.59
2017-06-02T00:48:32.736Z,101096.75
2017-06-02T00:50:59.102Z,101095.25
2017-06-02T00:53:25.572Z,101091.45
2017-06-02T00:55:51.916Z,101087.84
2017-06-02T00:58:18.256Z,101088.72
2017-06-02T01:00:44.641Z,101086.84
2017-06-02T01:03:11.021Z,101083.12
2017-06-02T01:05:37.405Z,101085.85
2017-06-02T01:08:03.739Z,101083.44
2017-06-02T01:10:30.066Z,101086.12
2017-06-02T01:12:56.413Z,101089.31
2017-06-02T01:15:22.757Z,101083.16
2017-06-02T01:17:49.079Z,101083.06
2017-06-02T01:20:15.406Z,101082.75
2017-06-02T01:22:41.742Z,101073.05
2017-06-02T01:25:08.063Z,101072.94
2017-06-02T01:27:34.394Z,101069.87
2017-06-02T01:30:00.733Z,101069.25
2017-06-02T01:32:27.109Z,101067.36
2017-06-02T01:34:53.534Z,101067.11
2017-06-02T01:37:19.891Z,101066.12
2017-06-02T01:39:46.291Z,101059.44
2017-06-02T01:42:12.652Z,101063.69
2017-06-02T01:44:39.034Z,101061.38
2017-06-02T01:47:05.388Z,101057.16
2017-06-02T01:49:31.777Z,101058.67
2017-06-02T01:51:58.113Z,101053.15
2017-06-02T01:54:24.453Z,101060.17
2017-06-02T01:56:50.906Z,101055.78
2017-06-02T01:59:17.230Z,101057.59
2017-06-02T02:01:43.635Z,101054.78
2017-06-02T02:04:09.958Z,101058.13
2017-06-02T02:06:36.329Z,101057.15
2017-06-02T02:09:02.741Z,101053.72
2017-06-02T02:11:29.132Z,101050.90
2017-06-02T02:13:55.489Z,101050.86
2017-06-02T02:16:22.074Z,101053.27
2017-06-02T02:18:48.386Z,101053.45
2017-06-02T02:21:14.734Z,101048.08
2017-06-02T02:23:41.053Z,101044.66
2017-06-02T02:26:07.444Z,101045.34
2017-06-02T02:28:33.767Z,101042.39
2017-06-02T02:31:00.148Z,101039.20
2017-06-02T02:33:26.513Z,101036.28
2017-06-02T02:35:52.902Z,101031.11
2017-06-02T02:38:19.254Z,101028.25
2017-06-02T02:40:45.569Z,101029.38
2017-06-02T02:43:11.917Z,101025.55
2017-06-02T02:45:38.261Z,101033.99
2017-06-02T02:48:04.612Z,101026.92
2017-06-02T02:50:30.960Z,101023.92
2017-06-02T02:52:57.313Z,101024.61
2017-06-02T02:55:23.642Z,101030.05
2017-06-02T02:57:49.978Z,101025.84
2017-06-02T03:00:16.320Z,101026.31
2017-06-02T03:02:42.649Z,101027.02
2017-06-02T03:05:08.993Z,101027.61
2017-06-02T03:07:35.305Z,101022.56
2017-06-02T03:10:01.658Z,101024.10
2017-06-02T03:12:28.003Z,101025.92
2017-06-02T03:14:54.333Z,101022.55
2017-06-02T03:17:20.700Z,101018.25
2017-06-02T03:19:47.019Z,101021.52
2017-06-02T03:22:13.422Z,101022.77
2017-06-02T03:24:39.826Z,101013.93
2017-06-02T03:27:06.248Z,101012.50
2017-06-02T03:29:32.571Z,101014.77
2017-06-02T03:31:58.916Z,101006.34
2017-06-02T03:34:25.260Z,101012.64
2017-06-02T03:36:51.726Z,101011.66
2017-06-02T03:39:18.107Z,101011.44
2017-06-02T03:41:44.454Z,101010.48
2017-06-02T03:44:10.809Z,101015.84
2017-06-02T03:46:37.224Z,101008.23
2017-06-02T03:49:03.575Z,101009.95
2017-06-02T03:51:29.917Z,101011.94
2017-06-02T03:53:56.256Z,101005.42
2017-06-02T03:56:22.646Z,101005.56
2017-06-02T03:58:48.971Z,101006.55
2017-06-02T04:01:15.303Z,101007.23
2017-06-02T04:03:41.636Z,101000.76
2017-06-02T04:06:08.050Z,101002.45
2017-06-02T04:08:34.417Z,100997.91
2017-06-02T04:11:00.758Z,101005.45
2017-06-02T04:13:27.099Z,101001.25
2017-06-02T04:15:53.457Z,101004.22
2017-06-02T04:18:19.791Z,101005.64
2017-06-02T04:20:46.110Z,101001.55
2017-06-02T04:23:12.449Z,101000.81
2017-06-02T04:25:38.805Z,100999.23
2017-06-02T04:28:05.122Z,100996.09
2017-06-02T04:30:31.463Z,100997.38
2017-06-02T04:32:57.802Z,101001.73
2017-06-02T04:35:24.126Z,101001.27
2017-06-02T04:37:50.469Z,100995.91
2017-06-02T04:40:16.817Z,101001.47
2017-06-02T04:42:43.139Z,100999.86
2017-06-02T04:45:09.474Z,101001.22
2017-06-02T04:47:35.836Z,101000.28
2017-06-02T04:50:02.202Z,100995.91
2017-06-02T04:52:28.544Z,100997.98
2017-06-02T04:54:54.879Z,100986.47
2017-06-02T04:57:21.227Z,100989.16
2017-06-02T04:59:47.560Z,100993.24
2017-06-02T05:02:13.946Z,100990.36
2017-06-02T05:04:40.270Z,100987.43
2017-06-02T05:07:06.597Z,100993.19
2017-06-02T05:09:32.933Z,100989.26
2017-06-02T05:11:59.296Z,100985.66
2017-06-02T05:14:25.647Z,100985.66
2017-06-02T05:16:52.007Z,100983.92
2017-06-02T05:19:18.357Z,100985.66
2017-06-02T05:21:44.718Z,100986.72
2017-06-02T05:24:11.024Z,100992.00
2017-06-02T05:26:37.401Z,100998.00
2017-06-02T05:29:03.761Z,100994.06
2017-06-02T05:31:30.122Z,100988.55
2017-06-02T05:33:56.474Z,100990.67
2017-06-02T05:36:22.800Z,100985.57
2017-06-02T05:38:49.122Z,100983.35
2017-06-02T05:41:15.558Z,100982.58
2017-06-02T05:43:41.907Z,100981.09
2017-06-02T05:46:08.267Z,100983.36
2017-06-02T05:48:34.644Z,100981.63
2017-06-02T05:51:01.014Z,100980.73
2017-06-02T05:53:27.348Z,100979.50
2017-06-02T05:55:53.672Z,100963.95
2017-06-02T05:58:20.045Z,100969.50
2017-06-02T06:00:46.487Z,100967.60
2017-06-02T06:03:12.807Z,100968.69
2017-06-02T06:05:39.165Z,100967.41
2017-06-02T06:08:05.502Z,100966.59
2017-06-02T06:10:31.845Z,100969.55
2017-06-02T06:12:58.180Z,100966.27
2017-06-02T06:15:24.554Z,100968.79
2017-06-02T06:17:50.887Z,100964.41
2017-06-02T06:20:17.199Z,100968.67
2017-06-02T06:22:43.550Z,100966.80
2017-06-02T06:25:09.925Z,100971.98
2017-06-02T06:27:36.277Z,100979.13
2017-06-02T06:30:02.634Z,100971.33
2017-06-02T06:32:29.370Z,100969.91
2017-06-02T06:34:55.725Z,100965.47
2017-06-02T06:37:22.065Z,100966.25
2017-06-02T06:39:48.408Z,100955.22
2017-06-02T06:42:14.756Z,100960.02
2017-06-02T06:44:41.090Z,100958.60
2017-06-02T06:47:07.483Z,100952.39
2017-06-02T06:49:33.807Z,100953.30
2017-06-02T06:52:00.153Z,100951.59
2017-06-02T06:54:26.503Z,100957.58
2017-06-02T06:56:52.840Z,100949.98
2017-06-02T06:59:19.201Z,100954.36
2017-06-02T07:01:45.504Z,100946.05
2017-06-02T07:04:11.832Z,100949.89
2017-06-02T07:06:38.172Z,100952.03
2017-06-02T07:09:04.569Z,100945.14
2017-06-02T07:11:30.915Z,100946.87
2017-06-02T07:13:57.272Z,100948.08
2017-06-02T07:16:23.612Z,100943.95
2017-06-02T07:18:50.357Z,100937.22
2017-06-02T07:21:16.692Z,100943.95
2017-06-02T07:23:43.013Z,100938.77
2017-06-02T07:26:09.353Z,100942.34
2017-06-02T07:28:36.121Z,100941.00
2017-06-02T07:31:02.478Z,100938.89
2017-06-02T07:33:28.890Z,100945.58
2017-06-02T07:35:55.242Z,100942.35
2017-06-02T07:38:21.930Z,100941.80
2017-06-02T07:40:48.294Z,100932.48
2017-06-02T07:43:14.621Z,100933.58
2017-06-02T07:45:40.971Z,100933.33
2017-06-02T07:48:07.308Z,100930.35
2017-06-02T07:50:33.641Z,100931.83
2017-06-02T07:53:00.022Z,100941.37
2017-06-02T07:55:26.349Z,100931.20
2017-06-02T07:57:52.688Z,100930.14
2017-06-02T08:00:18.994Z,100928.23
2017-06-02T08:02:45.335Z,100934.98
2017-06-02T08:05:11.701Z,100934.23
2017-06-02T08:07:38.037Z,100934.52
2017-06-02T08:10:04.418Z,100933.09
2017-06-02T08:12:30.744Z,100930.50
2017-06-02T08:14:57.136Z,100933.64
2017-06-02T08:17:23.486Z,100926.77
2017-06-02T08:19:49.832Z,100924.76
2017-06-02T08:22:16.165Z,100919.83
2017-06-02T08:24:42.480Z,100917.91
2017-06-02T08:27:08.820Z,100918.63
2017-06-02T08:29:35.219Z,100916.88
2017-06-02T08:32:01.604Z,100914.55
2017-06-02T08:34:27.951Z,100919.47
2017-06-02T08:36:54.271Z,100908.10
2017-06-02T08:39:20.673Z,100905.28
2017-06-02T08:41:46.978Z,100903.97
2017-06-02T08:44:13.333Z,100904.95
2017-06-02T08:46:39.662Z,100903.36
2017-06-02T08:49:05.991Z,100912.41
2017-06-02T08:51:32.341Z,100909.45
2017-06-02T08:53:58.669Z,100914.25
2017-06-02T08:56:25.012Z,100916.36
2017-06-02T08:58:51.338Z,100907.81
2017-06-02T09:01:17.665Z,100911.47
2017-06-02T09:03:43.979Z,100915.96
2017-06-02T09:06:10.344Z,100907.88
2017-06-02T09:08:36.703Z,100911.34
2017-06-02T09:11:03.041Z,100906.47
2017-06-02T09:13:29.390Z,100912.44
2017-06-02T09:15:55.738Z,100911.71
2017-06-02T09:18:22.104Z,100911.56
2017-06-02T09:20:48.439Z,100909.75
2017-06-02T09:23:14.751Z,100910.09
2017-06-02T09:25:41.115Z,100904.12
2017-06-02T09:28:07.481Z,100896.89
2017-06-02T09:30:33.830Z,100904.31
2017-06-02T09:33:00.166Z,100901.62
2017-06-02T09:35:26.542Z,100893.48
2017-06-02T09:37:52.900Z,100898.48
2017-06-02T09:40:19.247Z,100898.98
2017-06-02T09:42:45.584Z,100897.33
2017-06-02T09:45:11.917Z,100898.52
2017-06-02T09:47:38.247Z,100895.44
2017-06-02T09:50:04.573Z,100898.22
2017-06-02T09:52:30.931Z,100889.28
2017-06-02T09:54:57.318Z,100891.41
2017-06-02T09:57:23.670Z,100893.73
2017-06-02T09:59:49.997Z,100890.36
2017-06-02T10:02:16.344Z,100886.69
2017-06-02T10:04:42.694Z,100886.52
2017-06-02T10:07:09.039Z,100888.74
2017-06-02T10:09:36.158Z,100889.08
2017-06-02T10:12:02.673Z,100887.13
2017-06-02T10:14:29.035Z,100881.81
2017-06-02T10:16:55.390Z,100878.41
2017-06-02T10:19:21.898Z,100877.75
2017-06-02T10:21:48.257Z,100882.59
2017-06-02T10:24:15.108Z,100881.69
2017-06-02T10:26:41.788Z,100875.06
2017-06-02T10:29:08.954Z,100878.42
2017-06-02T10:31:35.356Z,100872.64
2017-06-02T10:34:01.676Z,100866.27
2017-06-02T10:36:28.021Z,100866.87
2017-06-02T10:38:54.373Z,100862.64
2017-06-02T10:41:20.716Z,100862.06
2017-06-02T10:43:47.089Z,100860.78
2017-06-02T10:46:13.444Z,100857.28
2017-06-02T10:48:39.775Z,100848.00
2017-06-02T10:51:06.125Z,100848.93
2017-06-02T10:53:32.490Z,100841.50
2017-06-02T10:55:58.825Z,100843.58
2017-06-02T10:58:25.182Z,100839.98
2017-06-02T11:00:51.523Z,100844.17
2017-06-02T11:03:17.880Z,100840.77
2017-06-02T11:05:44.310Z,100838.88
2017-06-02T11:08:10.640Z,100832.55
2017-06-02T11:10:36.966Z,100832.57
2017-06-02T11:13:03.321Z,100832.00
2017-06-02T11:15:29.758Z,100831.23
2017-06-02T11:17:56.101Z,100823.16
2017-06-02T11:20:22.458Z,100823.98
2017-06-02T11:22:48.838Z,100822.49
2017-06-02T11:25:15.140Z,100826.33
2017-06-02T11:27:41.494Z,100818.67
2017-06-02T11:30:07.827Z,100819.34
2017-06-02T11:32:34.165Z,100816.58
2017-06-02T11:35:00.587Z,100815.44
2017-06-02T11:37:26.949Z,100814.48
2017-06-02T11:39:53.313Z,100814.57
2017-06-02T11:42:19.642Z,100805.35
2017-06-02T11:44:46.045Z,100806.48
2017-06-02T11:47:12.387Z,100810.17
2017-06-02T11:49:38.746Z,100805.41
2017-06-02T11:52:05.090Z,100806.60
2017-06-02T11:54:31.443Z,100805.02
2017-06-02T11:56:57.840Z,100796.41
2017-06-02T11:59:24.183Z,100797.36
2017-06-02T12:01:50.542Z,100798.10
2017-06-02T12:04:16.941Z,100793.13
2017-06-02T12:06:43.356Z,100798.27
2017-06-02T12:09:09.691Z,100788.06
2017-06-02T12:11:36.055Z,100790.09
2017-06-02T12:14:02.450Z,100786.99
2017-06-02T12:16:28.794Z,100782.86
2017-06-02T12:18:55.107Z,100775.13
2017-06-02T12:21:21.432Z,100782.64
2017-06-02T12:23:47.772Z,100777.05
2017-06-02T12:26:14.080Z,100774.30
2017-06-02T12:28:40.417Z,100766.38
2017-06-02T12:31:06.831Z,100772.99
2017-06-02T12:33:33.154Z,100774.60
2017-06-02T12:35:59.495Z,100770.80
2017-06-02T12:38:25.833Z,100768.00
2017-06-02T12:40:52.188Z,100768.30
2017-06-02T12:43:18.533Z,100773.41
2017-06-02T12:45:44.837Z,100767.55
2017-06-02T12:48:11.163Z,100774.06
2017-06-02T12:50:37.510Z,100771.87
2017-06-02T12:53:03.848Z,100768.88
2017-06-02T12:55:30.195Z,100761.55
2017-06-02T12:57:56.579Z,100761.78
2017-06-02T13:00:22.936Z,100762.95
2017-06-02T13:02:49.294Z,100757.23
2017-06-02T13:05:15.606Z,100756.48
2017-06-02T13:07:41.983Z,100750.25
2017-06-02T13:10:08.369Z,100751.73
2017-06-02T13:12:34.723Z,100743.80
2017-06-02T13:15:01.066Z,100734.88
2017-06-02T13:17:27.392Z,100733.42
2017-06-02T13:19:53.738Z,100733.67
2017-06-02T13:22:20.090Z,100734.52
2017-06-02T13:24:46.442Z,100738.06
2017-06-02T13:27:12.754Z,100736.30
2017-06-02T13:29:39.100Z,100740.77
2017-06-02T13:32:05.462Z,100732.59
2017-06-02T13:34:31.792Z,100742.37
2017-06-02T13:36:58.155Z,100738.44
2017-06-02T13:39:24.519Z,100737.67
2017-06-02T13:41:50.858Z,100736.80
2017-06-02T13:44:17.196Z,100734.08
2017-06-02T13:46:43.548Z,100729.13
2017-06-02T13:49:09.863Z,100728.41
2017-06-02T13:51:36.199Z,100719.89
2017-06-02T13:54:02.530Z,100721.81
2017-06-02T13:56:28.886Z,100723.66
2017-06-02T13:58:55.253Z,100722.63
2017-06-02T14:01:21.597Z,100715.37
2017-06-02T14:03:47.911Z,100710.80
2017-06-02T14:06:14.247Z,100715.20
2017-06-02T14:08:40.634Z,100712.46
2017-06-02T14:11:06.984Z,100708.05
2017-06-02T14:13:33.351Z,100710.02
2017-06-02T14:15:59.757Z,100714.70
2017-06-02T14:18:26.133Z,100706.27
2017-06-02T14:20:52.507Z,100701.50
2017-06-02T14:23:18.852Z,100695.45
2017-06-02T14:25:45.227Z,100696.52
2017-06-02T14:28:11.573Z,100691.50
2017-06-02T14:30:37.926Z,100697.02
2017-06-02T14:33:04.253Z,100702.24
2017-06-02T14:35:30.669Z,100697.66
2017-06-02T14:37:56.989Z,100699.62
2017-06-02T14:40:23.323Z,100698.58
2017-06-02T14:42:49.700Z,100695.77
2017-06-02T14:45:16.074Z,100696.52
2017-06-02T14:47:42.427Z,100690.42
2017-06-02T14:50:08.754Z,100694.07
2017-06-02T14:52:35.106Z,100696.57
2017-06-02T14:55:01.468Z,100693.27
2017-06-02T14:57:27.831Z,100690.41
2017-06-02T14:59:54.200Z,100703.16
2017-06-02T15:02:20.519Z,100684.87
2017-06-02T15:04:46.916Z,100687.52
2017-06-02T15:07:13.275Z,100682.94
2017-06-02T15:09:39.598Z,100676.27
2017-06-02T15:12:05.952Z,100675.06
2017-06-02T15:14:32.298Z,100672.03
2017-06-02T15:16:58.644Z,100665.77
2017-06-02T15:19:24.976Z,100681.69
2017-06-02T15:21:51.355Z,100676.48
2017-06-02T15:24:17.676Z,100672.50
2017-06-02T15:26:44.579Z,100670.72
2017-06-02T15:29:10.918Z,100666.24
2017-06-02T15:31:37.274Z,100664.80
2017-06-02T15:34:03.643Z,100660.38
2017-06-02T15:36:29.987Z,100656.67
2017-06-02T15:38:56.373Z,100651.66
2017-06-02T15:41:22.796Z,100658.37
2017-06-02T15:43:49.141Z,100661.67
2017-06-02T15:46:23.518Z,100657.26
2017-06-02T15:48:59.628Z,100648.88
2017-06-02T15:51:32.326Z,100651.30
2017-06-02T15:54:02.896Z,100653.84
2017-06-02T15:56:29.868Z,100650.02
2017-06-02T15:58:56.204Z,100647.44
2017-06-02T16:01:22.582Z,100649.70
2017-06-02T16:03:48.928Z,100649.34
2017-06-02T16:06:15.279Z,100648.17
2017-06-02T16:08:41.681Z,100646.22
2017-06-02T16:11:08.033Z,100646.77
2017-06-02T16:13:34.973Z,100647.20
2017-06-02T16:16:01.328Z,100646.94
2017-06-02T16:18:28.445Z,100640.63
2017-06-02T16:20:55.113Z,100637.41
2017-06-02T16:23:22.027Z,100639.55
2017-06-02T16:25:48.366Z,100635.97
2017-06-02T16:28:14.702Z,100638.28
2017-06-02T16:30:41.660Z,100632.30
2017-06-02T16:33:08.049Z,100634.58
2017-06-02T16:35:34.515Z,100626.92
2017-06-02T16:38:01.297Z,100629.61
2017-06-02T16:40:27.731Z,100632.08
2017-06-02T16:42:54.083Z,100632.11
2017-06-02T16:45:21.286Z,100632.92
2017-06-02T16:47:47.631Z,100628.94
2017-06-02T16:50:14.637Z,100634.00
2017-06-02T16:52:41.732Z,100636.87
2017-06-02T16:55:08.214Z,100637.37
2017-06-02T16:57:36.446Z,100636.50
2017-06-02T17:00:04.334Z,100627.37
2017-06-02T17:02:30.833Z,100627.02
2017-06-02T17:04:57.352Z,100625.45
2017-06-02T17:07:24.567Z,100624.11
2017-06-02T17:09:51.541Z,100622.83
2017-06-02T17:12:18.768Z,100623.72
2017-06-02T17:14:45.882Z,100619.86
2017-06-02T17:17:12.239Z,100615.37
2017-06-02T17:19:38.610Z,100618.30
2017-06-02T17:22:05.045Z,100624.28
2017-06-02T17:24:31.421Z,100629.52
2017-06-02T17:26:57.845Z,100629.77
2017-06-02T17:29:24.907Z,100631.30
2017-06-02T17:31:51.573Z,100630.11
2017-06-02T17:34:17.962Z,100627.67
2017-06-02T17:36:46.123Z,100622.20
2017-06-02T17:39:12.536Z,100618.86
2017-06-02T17:41:39.115Z,100620.45
2017-06-02T17:44:05.672Z,100625.81
2017-06-02T17:46:33.500Z,100627.77
2017-06-02T17:48:59.978Z,100628.02
2017-06-02T17:51:26.404Z,100629.41
2017-06-02T17:53:52.763Z,100635.48
2017-06-02T17:56:19.170Z,100637.28
2017-06-02T17:58:45.610Z,100635.80
2017-06-02T18:01:12.081Z,100654.42
2017-06-02T18:03:38.458Z,100663.78
2017-06-02T18:06:04.829Z,100692.66
2017-06-02T18:08:31.179Z,100693.38
2017-06-02T18:10:57.566Z,100712.32
2017-06-02T18:13:23.911Z,100720.12
2017-06-02T18:15:50.330Z,100736.81
2017-06-02T18:18:16.683Z,100749.41
2017-06-02T18:20:43.072Z,100756.80
2017-06-02T18:23:09.482Z,100764.59
2017-06-02T18:25:35.878Z,100762.40
2017-06-02T18:28:02.333Z,100770.95
2017-06-02T18:30:28.715Z,100777.19
2017-06-02T18:32:55.084Z,100767.62
2017-06-02T18:35:21.499Z,100768.42
2017-06-02T18:37:47.860Z,100784.49
2017-06-02T18:40:14.436Z,100778.20
2017-06-02T18:42:40.947Z,100763.73
2017-06-02T18:45:07.344Z,100760.38
2017-06-02T18:47:33.740Z,100760.48
2017-06-02T18:50:00.085Z,100761.84
2017-06-02T18:52:26.486Z,100765.28
2017-06-02T18:54:52.855Z,100772.22
2017-06-02T18:57:19.284Z,100771.11
2017-06-02T18:59:46.431Z,100775.30
2017-06-02T19:02:24.012Z,100778.89
2017-06-02T19:07:31.283Z,100750.33
2017-06-02T19:09:57.852Z,100753.56
2017-06-02T19:12:24.252Z,100751.35
2017-06-02T19:14:50.649Z,100758.16
2017-06-02T19:17:17.072Z,100748.55
2017-06-02T19:19:43.535Z,100747.94
2017-06-02T19:22:09.892Z,100740.89
2017-06-02T19:24:37.473Z,100733.26
2017-06-02T19:27:04.018Z,100745.05
2017-06-02T19:29:30.925Z,100741.83
2017-06-02T19:31:57.310Z,100732.92
2017-06-02T19:34:23.840Z,100730.11
2017-06-02T19:36:50.187Z,100738.22
2017-06-02T19:39:16.583Z,100734.57
2017-06-02T19:41:42.970Z,100737.82
2017-06-02T19:44:09.459Z,100738.41
2017-06-02T19:46:35.897Z,100735.41
2017-06-02T19:49:02.275Z,100738.79
2017-06-02T19:51:28.644Z,100746.13
2017-06-02T19:53:55.144Z,100740.98
2017-06-02T19:56:21.553Z,100734.53
2017-06-02T19:58:48.012Z,100735.77
2017-06-02T20:01:14.421Z,100744.52
2017-06-02T20:03:40.828Z,100745.69
2017-06-02T20:06:07.250Z,100748.10
2017-06-02T20:08:33.587Z,100750.78
2017-06-02T20:11:00.110Z,100741.98
2017-06-02T20:13:27.038Z,100732.19
2017-06-02T20:15:53.460Z,100746.48
2017-06-02T20:18:19.853Z,100733.77
2017-06-02T20:20:46.312Z,100738.64
2017-06-02T20:23:12.800Z,100735.70
2017-06-02T20:25:39.225Z,100737.30
2017-06-02T20:39:00.139Z,100726.80
2017-06-02T20:41:26.533Z,100733.84
2017-06-02T20:43:52.897Z,100728.87
2017-06-02T20:46:19.275Z,100738.44
2017-06-02T20:48:45.656Z,100730.13
2017-06-02T20:51:12.072Z,100735.31
2017-06-02T20:53:45.647Z,100735.48
2017-06-02T20:56:19.457Z,100741.89
2017-06-02T20:58:45.849Z,100747.57
2017-06-02T21:01:12.629Z,100733.71
2017-06-02T21:03:39.058Z,100727.67
2017-06-02T21:06:05.421Z,100719.65
2017-06-02T21:08:31.760Z,100725.55
2017-06-02T21:10:58.117Z,100725.58
2017-06-02T21:13:24.485Z,100720.78
2017-06-02T21:15:50.813Z,100716.67
2017-06-02T21:18:17.275Z,100714.00
2017-06-02T21:20:43.671Z,100720.88
2017-06-02T21:23:10.033Z,100715.63
2017-06-02T21:25:36.404Z,100713.84
2017-06-02T21:28:02.774Z,100714.32
2017-06-02T21:30:29.204Z,100706.88
2017-06-02T21:32:55.584Z,100701.02
2017-06-02T21:35:21.935Z,100700.83
2017-06-02T21:37:48.299Z,100698.26
2017-06-02T21:40:14.677Z,100693.84
2017-06-02T21:42:41.069Z,100689.59
2017-06-02T21:45:07.460Z,100681.91
2017-06-02T21:47:33.794Z,100693.34
2017-06-02T21:50:00.199Z,100692.46
2017-06-02T21:52:26.585Z,100692.50
2017-06-02T21:54:52.972Z,100693.80
2017-06-02T21:57:19.354Z,100691.13
2017-06-02T21:59:45.736Z,100684.34
2017-06-02T22:02:12.125Z,100688.45
2017-06-02T22:04:38.622Z,100683.31
2017-06-02T22:07:05.023Z,100687.30
2017-06-02T22:09:31.355Z,100690.33
2017-06-02T22:11:57.828Z,100690.06
2017-06-02T22:14:24.331Z,100683.17
2017-06-02T22:16:50.671Z,100683.81
2017-06-02T22:19:17.051Z,100685.33
2017-06-02T22:21:43.428Z,100685.91
2017-06-02T22:24:09.739Z,100682.80
2017-06-02T22:26:36.070Z,100675.09
2017-06-02T22:29:02.398Z,100676.30
2017-06-02T22:31:28.802Z,100675.90
2017-06-02T22:33:55.958Z,100676.90
2017-06-02T22:36:22.852Z,100673.64
2017-06-02T22:38:49.173Z,100671.22
2017-06-02T22:41:16.020Z,100674.85
2017-06-02T22:43:42.383Z,100676.66
2017-06-02T22:46:15.323Z,100673.00
2017-06-02T22:48:49.308Z,100673.88
2017-06-02T22:51:32.594Z,100670.92
2017-06-02T22:54:06.542Z,100663.30
2017-06-02T22:56:39.538Z,100667.35
2017-06-02T22:59:12.331Z,100669.89
2017-06-02T23:01:45.669Z,100666.46
2017-06-02T23:04:19.259Z,100661.27
2017-06-02T23:06:52.087Z,100656.24
2017-06-02T23:09:26.264Z,100665.59
2017-06-02T23:12:06.796Z,100657.20
2017-06-02T23:14:39.843Z,100663.63
2017-06-02T23:17:25.711Z,100661.29
2017-06-02T23:19:58.850Z,100665.16
2017-06-02T23:22:32.679Z,100658.11
2017-06-02T23:25:06.538Z,100665.42
2017-06-02T23:27:39.167Z,100662.94
2017-06-02T23:30:12.001Z,100659.44
2017-06-02T23:32:48.718Z,100653.98
2017-06-02T23:35:21.587Z,100650.99
2017-06-02T23:37:55.647Z,100646.77
2017-06-02T23:40:29.401Z,100638.83
2017-06-02T23:43:03.034Z,100646.95
2017-06-02T23:45:36.910Z,100649.92
2017-06-02T23:48:10.413Z,100650.27
2017-06-02T23:50:36.736Z,100636.75
2017-06-02T23:53:03.086Z,100643.66
2017-06-02T23:55:29.436Z,100636.11
2017-06-02T23:58:02.356Z,100632.73
